CTV973 WIKK-WIII
Flight info
| Callsign | CTV973 |
|---|---|
| Flight time | 0h 44m |
| Altitude | 31000 |
| Route | BOSLO W26 BUNIK |
| Aircraft | A320/M-SDE2E3FGHIRWY/LB1 |
Departure
| Time | 2026-04-22 16:13 |
|---|---|
| Airport | Depati Amir Airport (WIKK) |
Arrival
| Time | 2026-04-22 16:57 |
|---|---|
| Airport | Soekarno-Hatta International Airport (WIII) |
| Time | Latitude | Longitude | Altitude | Speed | Heading |
|---|---|---|---|---|---|
| 2026-04-22 15:41 | -2.15789 | 106.14021 | 112 ft | 0 kts | 75° |
| 2026-04-22 16:05 | -2.15790 | 106.14021 | 112 ft | 1 kts | 75° |
| 2026-04-22 16:06 | -2.15793 | 106.14003 | 114 ft | 3 kts | 88° |
| 2026-04-22 16:06 | -2.15792 | 106.13984 | 108 ft | 3 kts | 110° |
| 2026-04-22 16:06 | -2.15787 | 106.13972 | 113 ft | 3 kts | 131° |
| 2026-04-22 16:06 | -2.15773 | 106.13961 | 110 ft | 1 kts | 165° |
| 2026-04-22 16:07 | -2.15772 | 106.13961 | 110 ft | 0 kts | 165° |
| 2026-04-22 16:08 | -2.15773 | 106.13961 | 112 ft | 3 kts | 165° |
| 2026-04-22 16:08 | -2.15821 | 106.13974 | 111 ft | 9 kts | 165° |
| 2026-04-22 16:08 | -2.15906 | 106.13996 | 112 ft | 13 kts | 165° |
| 2026-04-22 16:08 | -2.15991 | 106.14019 | 112 ft | 15 kts | 164° |
| 2026-04-22 16:09 | -2.16098 | 106.14050 | 114 ft | 16 kts | 165° |
| 2026-04-22 16:09 | -2.16187 | 106.14074 | 118 ft | 11 kts | 162° |
| 2026-04-22 16:09 | -2.16278 | 106.14099 | 120 ft | 17 kts | 166° |
| 2026-04-22 16:09 | -2.16377 | 106.14126 | 117 ft | 8 kts | 163° |
| 2026-04-22 16:10 | -2.16427 | 106.14141 | 121 ft | 7 kts | 163° |
| 2026-04-22 16:10 | -2.16460 | 106.14146 | 120 ft | 3 kts | 191° |
| 2026-04-22 16:10 | -2.16479 | 106.14130 | 118 ft | 4 kts | 226° |
| 2026-04-22 16:10 | -2.16488 | 106.14105 | 118 ft | 4 kts | 253° |
| 2026-04-22 16:11 | -2.16499 | 106.14065 | 121 ft | 11 kts | 255° |
| 2026-04-22 16:11 | -2.16564 | 106.14003 | 120 ft | 14 kts | 179° |
| 2026-04-22 16:11 | -2.16675 | 106.14026 | 122 ft | 19 kts | 168° |
| 2026-04-22 16:11 | -2.16819 | 106.14061 | 120 ft | 23 kts | 165° |
| 2026-04-22 16:12 | -2.16987 | 106.14116 | 114 ft | 27 kts | 154° |
| 2026-04-22 16:12 | -2.17059 | 106.14133 | 115 ft | 1 kts | 278° |
| 2026-04-22 16:12 | -2.17021 | 106.14117 | 116 ft | 20 kts | 341° |
| 2026-04-22 16:12 | -2.16600 | 106.14002 | 120 ft | 102 kts | 344° |
| 2026-04-22 16:13 | -2.15710 | 106.13746 | 168 ft | 157 kts | 344° |
| 2026-04-22 16:13 | -2.14646 | 106.13476 | 888 ft | 159 kts | 351° |
| 2026-04-22 16:13 | -2.13592 | 106.13768 | 1558 ft | 167 kts | 45° |
| 2026-04-22 16:13 | -2.13215 | 106.14846 | 2236 ft | 177 kts | 98° |
| 2026-04-22 16:14 | -2.13921 | 106.15899 | 2642 ft | 200 kts | 146° |
| 2026-04-22 16:14 | -2.15322 | 106.16410 | 2987 ft | 232 kts | 171° |
| 2026-04-22 16:14 | -2.17008 | 106.16620 | 3484 ft | 257 kts | 172° |
| 2026-04-22 16:14 | -2.18831 | 106.16893 | 4235 ft | 270 kts | 171° |
| 2026-04-22 16:15 | -2.20698 | 106.17194 | 5230 ft | 274 kts | 171° |
| 2026-04-22 16:15 | -2.22592 | 106.17503 | 6213 ft | 278 kts | 171° |
| 2026-04-22 16:15 | -2.24514 | 106.17815 | 7133 ft | 282 kts | 171° |
| 2026-04-22 16:15 | -2.26465 | 106.18129 | 8049 ft | 286 kts | 171° |
| 2026-04-22 16:16 | -2.28450 | 106.18442 | 8960 ft | 291 kts | 171° |
| 2026-04-22 16:16 | -2.30463 | 106.18755 | 9844 ft | 296 kts | 171° |
| 2026-04-22 16:16 | -2.32539 | 106.19077 | 10414 ft | 312 kts | 171° |
| 2026-04-22 16:16 | -2.34764 | 106.19420 | 10755 ft | 334 kts | 171° |
| 2026-04-22 16:17 | -2.37096 | 106.19779 | 11392 ft | 343 kts | 171° |
| 2026-04-22 16:17 | -2.39473 | 106.20141 | 12155 ft | 348 kts | 171° |
| 2026-04-22 16:17 | -2.41888 | 106.20509 | 12928 ft | 353 kts | 171° |
| 2026-04-22 16:17 | -2.44326 | 106.20885 | 13699 ft | 357 kts | 171° |
| 2026-04-22 16:18 | -2.46792 | 106.21270 | 14368 ft | 361 kts | 171° |
| 2026-04-22 16:18 | -2.49287 | 106.21657 | 15027 ft | 365 kts | 171° |
| 2026-04-22 16:18 | -2.51809 | 106.22046 | 15693 ft | 369 kts | 171° |
| 2026-04-22 16:18 | -2.54319 | 106.22434 | 16328 ft | 373 kts | 171° |
| 2026-04-22 16:19 | -2.56897 | 106.22834 | 16989 ft | 376 kts | 171° |
| 2026-04-22 16:19 | -2.59494 | 106.23237 | 17640 ft | 380 kts | 171° |
| 2026-04-22 16:19 | -2.62120 | 106.23645 | 18265 ft | 384 kts | 171° |
| 2026-04-22 16:19 | -2.64771 | 106.24054 | 18799 ft | 387 kts | 171° |
| 2026-04-22 16:20 | -2.67446 | 106.24467 | 19355 ft | 390 kts | 171° |
| 2026-04-22 16:20 | -2.70139 | 106.24882 | 19910 ft | 393 kts | 171° |
| 2026-04-22 16:20 | -2.72854 | 106.25300 | 20458 ft | 396 kts | 171° |
| 2026-04-22 16:20 | -2.75591 | 106.25723 | 20993 ft | 399 kts | 171° |
| 2026-04-22 16:21 | -2.78346 | 106.26148 | 21514 ft | 402 kts | 170° |
| 2026-04-22 16:21 | -2.81118 | 106.26576 | 22036 ft | 405 kts | 170° |
| 2026-04-22 16:21 | -2.83915 | 106.27008 | 22554 ft | 408 kts | 170° |
| 2026-04-22 16:21 | -2.86728 | 106.27443 | 23057 ft | 411 kts | 170° |
| 2026-04-22 16:22 | -2.92423 | 106.28323 | 23947 ft | 417 kts | 170° |
| 2026-04-22 16:22 | -2.95298 | 106.28768 | 24354 ft | 419 kts | 170° |
| 2026-04-22 16:22 | -2.98188 | 106.29218 | 24758 ft | 422 kts | 170° |
| 2026-04-22 16:23 | -3.04031 | 106.30123 | 25556 ft | 427 kts | 171° |
| 2026-04-22 16:23 | -3.06982 | 106.30577 | 25954 ft | 430 kts | 171° |
| 2026-04-22 16:23 | -3.09947 | 106.31033 | 26345 ft | 433 kts | 171° |
| 2026-04-22 16:24 | -3.12892 | 106.31486 | 26725 ft | 435 kts | 171° |
| 2026-04-22 16:24 | -3.18911 | 106.32416 | 27460 ft | 440 kts | 171° |
| 2026-04-22 16:24 | -3.21946 | 106.32886 | 27817 ft | 443 kts | 171° |
| 2026-04-22 16:25 | -3.25001 | 106.33359 | 28186 ft | 445 kts | 171° |
| 2026-04-22 16:25 | -3.31165 | 106.34311 | 28894 ft | 451 kts | 171° |
| 2026-04-22 16:25 | -3.34276 | 106.34792 | 29243 ft | 454 kts | 171° |
| 2026-04-22 16:26 | -3.37405 | 106.35274 | 29590 ft | 456 kts | 171° |
| 2026-04-22 16:26 | -3.40552 | 106.35760 | 29929 ft | 459 kts | 171° |
| 2026-04-22 16:26 | -3.43719 | 106.36253 | 30202 ft | 462 kts | 171° |
| 2026-04-22 16:26 | -3.46896 | 106.36747 | 30474 ft | 464 kts | 171° |
| 2026-04-22 16:27 | -3.50097 | 106.37245 | 30702 ft | 467 kts | 171° |
| 2026-04-22 16:27 | -3.53333 | 106.37748 | 30815 ft | 473 kts | 171° |
| 2026-04-22 16:27 | -3.56606 | 106.38258 | 30930 ft | 479 kts | 171° |
| 2026-04-22 16:27 | -3.59917 | 106.38775 | 31058 ft | 484 kts | 171° |
| 2026-04-22 16:28 | -3.63263 | 106.39295 | 31191 ft | 488 kts | 171° |
| 2026-04-22 16:28 | -3.66619 | 106.39858 | 31213 ft | 491 kts | 170° |
| 2026-04-22 16:28 | -3.69989 | 106.40472 | 30895 ft | 496 kts | 169° |
| 2026-04-22 16:28 | -3.73392 | 106.41128 | 30905 ft | 498 kts | 169° |
| 2026-04-22 16:29 | -3.80208 | 106.42467 | 30909 ft | 500 kts | 169° |
| 2026-04-22 16:29 | -3.87037 | 106.43771 | 30910 ft | 500 kts | 169° |
| 2026-04-22 16:30 | -3.93880 | 106.45048 | 30906 ft | 500 kts | 169° |
| 2026-04-22 16:30 | -4.00719 | 106.46313 | 30905 ft | 500 kts | 169° |
| 2026-04-22 16:31 | -4.07557 | 106.47591 | 30907 ft | 500 kts | 169° |
| 2026-04-22 16:31 | -4.14402 | 106.48874 | 30905 ft | 500 kts | 169° |
| 2026-04-22 16:32 | -4.21241 | 106.50164 | 30907 ft | 500 kts | 169° |
| 2026-04-22 16:32 | -4.28085 | 106.51453 | 30906 ft | 500 kts | 169° |
| 2026-04-22 16:33 | -4.34930 | 106.52732 | 30903 ft | 500 kts | 169° |
| 2026-04-22 16:33 | -4.41771 | 106.54012 | 30903 ft | 500 kts | 169° |
| 2026-04-22 16:34 | -4.48614 | 106.55291 | 30904 ft | 500 kts | 169° |
| 2026-04-22 16:34 | -4.55408 | 106.56569 | 30906 ft | 500 kts | 169° |
| 2026-04-22 16:35 | -4.62247 | 106.57854 | 30903 ft | 500 kts | 169° |
| 2026-04-22 16:35 | -4.69087 | 106.59131 | 30901 ft | 500 kts | 169° |
| 2026-04-22 16:36 | -4.75724 | 106.61171 | 30905 ft | 500 kts | 160° |
| 2026-04-22 16:36 | -4.82118 | 106.63517 | 30901 ft | 470 kts | 160° |
| 2026-04-22 16:37 | -4.85121 | 106.64629 | 30901 ft | 452 kts | 159° |
| 2026-04-22 16:37 | -4.88050 | 106.65716 | 30873 ft | 445 kts | 160° |
| 2026-04-22 16:37 | -4.90934 | 106.66786 | 30444 ft | 439 kts | 160° |
| 2026-04-22 16:37 | -4.93786 | 106.67845 | 29960 ft | 435 kts | 159° |
| 2026-04-22 16:38 | -4.96610 | 106.68893 | 29392 ft | 431 kts | 159° |
| 2026-04-22 16:38 | -4.99405 | 106.69931 | 28824 ft | 427 kts | 159° |
| 2026-04-22 16:38 | -5.02184 | 106.70941 | 28274 ft | 423 kts | 163° |
| 2026-04-22 16:38 | -5.05061 | 106.71443 | 27743 ft | 419 kts | 176° |
| 2026-04-22 16:39 | -5.07961 | 106.71587 | 27189 ft | 415 kts | 178° |
| 2026-04-22 16:39 | -5.10818 | 106.71408 | 26586 ft | 409 kts | 188° |
| 2026-04-22 16:39 | -5.13622 | 106.70981 | 25848 ft | 406 kts | 188° |
| 2026-04-22 16:39 | -5.16395 | 106.70540 | 25152 ft | 401 kts | 188° |
| 2026-04-22 16:40 | -5.19134 | 106.70098 | 24473 ft | 397 kts | 188° |
| 2026-04-22 16:40 | -5.21845 | 106.69660 | 23817 ft | 392 kts | 188° |
| 2026-04-22 16:40 | -5.27182 | 106.68806 | 22389 ft | 384 kts | 188° |
| 2026-04-22 16:41 | -5.29808 | 106.68391 | 21696 ft | 380 kts | 188° |
| 2026-04-22 16:41 | -5.32371 | 106.67814 | 21028 ft | 376 kts | 200° |
| 2026-04-22 16:41 | -5.34728 | 106.66708 | 20369 ft | 373 kts | 206° |
| 2026-04-22 16:41 | -5.37035 | 106.65549 | 19725 ft | 369 kts | 206° |
| 2026-04-22 16:42 | -5.39320 | 106.64390 | 19122 ft | 366 kts | 206° |
| 2026-04-22 16:42 | -5.41582 | 106.63237 | 18512 ft | 363 kts | 206° |
| 2026-04-22 16:42 | -5.43824 | 106.62093 | 17883 ft | 360 kts | 206° |
| 2026-04-22 16:42 | -5.46045 | 106.60959 | 17221 ft | 357 kts | 206° |
| 2026-04-22 16:43 | -5.48247 | 106.59836 | 16591 ft | 353 kts | 206° |
| 2026-04-22 16:43 | -5.50426 | 106.58728 | 15977 ft | 350 kts | 206° |
| 2026-04-22 16:43 | -5.52560 | 106.57644 | 15406 ft | 347 kts | 206° |
| 2026-04-22 16:43 | -5.54726 | 106.56543 | 14418 ft | 355 kts | 206° |
| 2026-04-22 16:44 | -5.57001 | 106.55390 | 13206 ft | 367 kts | 206° |
| 2026-04-22 16:44 | -5.59285 | 106.54231 | 11993 ft | 377 kts | 206° |
| 2026-04-22 16:44 | -5.61590 | 106.53061 | 11366 ft | 366 kts | 206° |
| 2026-04-22 16:44 | -5.63848 | 106.51934 | 10619 ft | 359 kts | 203° |
| 2026-04-22 16:45 | -5.66191 | 106.51136 | 9924 ft | 352 kts | 195° |
| 2026-04-22 16:45 | -5.68463 | 106.50472 | 9802 ft | 329 kts | 195° |
| 2026-04-22 16:45 | -5.70589 | 106.49855 | 9678 ft | 308 kts | 195° |
| 2026-04-22 16:45 | -5.72607 | 106.49267 | 9330 ft | 297 kts | 195° |
| 2026-04-22 16:46 | -5.74577 | 106.48693 | 8831 ft | 293 kts | 195° |
| 2026-04-22 16:46 | -5.76528 | 106.48125 | 8300 ft | 290 kts | 195° |
| 2026-04-22 16:46 | -5.78463 | 106.47562 | 7762 ft | 288 kts | 195° |
| 2026-04-22 16:46 | -5.80376 | 106.47005 | 7231 ft | 285 kts | 195° |
| 2026-04-22 16:47 | -5.82273 | 106.46438 | 6700 ft | 283 kts | 199° |
| 2026-04-22 16:47 | -5.84102 | 106.45732 | 6153 ft | 281 kts | 199° |
| 2026-04-22 16:47 | -5.85323 | 106.45321 | 5780 ft | 279 kts | 197° |
| 2026-04-22 16:47 | -5.87793 | 106.44565 | 5049 ft | 276 kts | 196° |
| 2026-04-22 16:48 | -5.89615 | 106.44020 | 4823 ft | 274 kts | 196° |
| 2026-04-22 16:48 | -5.91438 | 106.43618 | 4699 ft | 259 kts | 181° |
| 2026-04-22 16:48 | -5.93151 | 106.43830 | 4582 ft | 240 kts | 166° |
| 2026-04-22 16:48 | -5.94725 | 106.44201 | 4446 ft | 225 kts | 166° |
| 2026-04-22 16:49 | -5.96216 | 106.44547 | 4331 ft | 218 kts | 166° |
| 2026-04-22 16:49 | -5.97642 | 106.44879 | 4207 ft | 217 kts | 166° |
| 2026-04-22 16:49 | -5.99125 | 106.45225 | 4087 ft | 217 kts | 166° |
| 2026-04-22 16:49 | -6.00592 | 106.45567 | 3972 ft | 216 kts | 166° |
| 2026-04-22 16:50 | -6.02056 | 106.45908 | 3847 ft | 216 kts | 166° |
| 2026-04-22 16:50 | -6.03518 | 106.46250 | 3730 ft | 216 kts | 166° |
| 2026-04-22 16:50 | -6.04977 | 106.46593 | 3607 ft | 215 kts | 167° |
| 2026-04-22 16:50 | -6.06447 | 106.46883 | 3489 ft | 215 kts | 174° |
| 2026-04-22 16:51 | -6.07939 | 106.46977 | 3368 ft | 215 kts | 178° |
| 2026-04-22 16:51 | -6.09433 | 106.47032 | 3248 ft | 215 kts | 178° |
| 2026-04-22 16:51 | -6.10924 | 106.47083 | 3136 ft | 214 kts | 178° |
| 2026-04-22 16:51 | -6.12409 | 106.47134 | 3045 ft | 214 kts | 178° |
| 2026-04-22 16:52 | -6.13893 | 106.47188 | 3004 ft | 213 kts | 178° |
| 2026-04-22 16:52 | -6.15367 | 106.47313 | 3004 ft | 213 kts | 165° |
| 2026-04-22 16:52 | -6.16266 | 106.47703 | 3007 ft | 214 kts | 148° |
| 2026-04-22 16:52 | -6.17925 | 106.48805 | 2949 ft | 212 kts | 142° |
| 2026-04-22 16:53 | -6.18851 | 106.49934 | 2756 ft | 209 kts | 115° |
| 2026-04-22 16:53 | -6.19179 | 106.51152 | 2614 ft | 205 kts | 92° |
| 2026-04-22 16:53 | -6.18974 | 106.52531 | 2402 ft | 203 kts | 68° |
| 2026-04-22 16:53 | -6.18452 | 106.53840 | 2175 ft | 199 kts | 67° |
| 2026-04-22 16:54 | -6.17955 | 106.55083 | 1913 ft | 184 kts | 67° |
| 2026-04-22 16:54 | -6.17499 | 106.56226 | 1682 ft | 169 kts | 67° |
| 2026-04-22 16:54 | -6.17077 | 106.57287 | 1469 ft | 158 kts | 67° |
| 2026-04-22 16:54 | -6.16677 | 106.58290 | 1275 ft | 151 kts | 68° |
| 2026-04-22 16:55 | -6.16293 | 106.59253 | 1082 ft | 147 kts | 68° |
| 2026-04-22 16:55 | -6.15916 | 106.60198 | 915 ft | 145 kts | 68° |
| 2026-04-22 16:55 | -6.15665 | 106.60829 | 800 ft | 143 kts | 68° |
| 2026-04-22 16:56 | -6.15505 | 106.61231 | 725 ft | 143 kts | 69° |
| 2026-04-22 16:56 | -6.15019 | 106.62449 | 481 ft | 141 kts | 69° |
| 2026-04-22 16:56 | -6.14655 | 106.63357 | 296 ft | 140 kts | 69° |
| 2026-04-22 16:56 | -6.14291 | 106.64266 | 100 ft | 139 kts | 70° |
| 2026-04-22 16:57 | -6.13947 | 106.65129 | 42 ft | 122 kts | 69° |
| 2026-04-22 16:57 | -6.13763 | 106.65596 | 39 ft | 90 kts | 68° |
| 2026-04-22 16:57 | -6.13593 | 106.66018 | 38 ft | 41 kts | 68° |
| 2026-04-22 16:57 | -6.13448 | 106.66245 | 41 ft | 17 kts | 41° |
| 2026-04-22 16:58 | -6.13384 | 106.66297 | 40 ft | 11 kts | 34° |
| 2026-04-22 16:58 | -6.13304 | 106.66276 | 39 ft | 10 kts | 291° |
| 2026-04-22 16:58 | -6.13314 | 106.66233 | 37 ft | 9 kts | 247° |
| 2026-04-22 16:58 | -6.13338 | 106.66174 | 39 ft | 9 kts | 248° |
| 2026-04-22 16:59 | -6.13360 | 106.66118 | 37 ft | 9 kts | 248° |
| 2026-04-22 16:59 | -6.13385 | 106.66055 | 38 ft | 11 kts | 248° |
| 2026-04-22 16:59 | -6.13412 | 106.65988 | 38 ft | 10 kts | 248° |
| 2026-04-22 16:59 | -6.13439 | 106.65920 | 38 ft | 10 kts | 248° |
| 2026-04-22 17:00 | -6.13466 | 106.65854 | 38 ft | 13 kts | 248° |
| 2026-04-22 17:00 | -6.13524 | 106.65708 | 38 ft | 10 kts | 250° |
| 2026-04-22 17:00 | -6.13495 | 106.65655 | 38 ft | 9 kts | 337° |
| 2026-04-22 17:01 | -6.13439 | 106.65631 | 38 ft | 9 kts | 337° |
| 2026-04-22 17:01 | -6.13386 | 106.65602 | 37 ft | 8 kts | 314° |
| 2026-04-22 17:01 | -6.13350 | 106.65555 | 38 ft | 9 kts | 309° |
| 2026-04-22 17:01 | -6.13309 | 106.65505 | 38 ft | 10 kts | 310° |
| 2026-04-22 17:02 | -6.13276 | 106.65442 | 38 ft | 11 kts | 278° |
| 2026-04-22 17:02 | -6.13276 | 106.65380 | 38 ft | 6 kts | 285° |
| 2026-04-22 17:02 | -6.13250 | 106.65354 | 38 ft | 4 kts | 320° |
| 2026-04-22 17:02 | -6.13233 | 106.65340 | 38 ft | 2 kts | 322° |
| 2026-04-22 17:03 | -6.13226 | 106.65335 | 38 ft | 0 kts | 322° |